createdAt,value
2019-05-25T00:01:20.790Z,58.86
2019-05-25T00:03:48.246Z,59.01
2019-05-25T00:06:15.753Z,59.11
2019-05-25T00:08:43.268Z,59.07
2019-05-25T00:11:10.971Z,59.17
2019-05-25T00:13:38.441Z,59.21
2019-05-25T00:16:06.021Z,59.22
2019-05-25T00:18:33.587Z,59.25
2019-05-25T00:21:01.121Z,59.26
2019-05-25T00:23:28.592Z,59.32
2019-05-25T00:25:56.201Z,59.36
2019-05-25T00:28:23.778Z,59.37
2019-05-25T00:30:51.333Z,59.35
2019-05-25T00:33:18.865Z,59.34
2019-05-25T00:35:46.342Z,59.36
2019-05-25T00:38:13.914Z,59.38
2019-05-25T00:40:41.400Z,59.36
2019-05-25T00:43:08.861Z,59.37
2019-05-25T00:45:36.874Z,59.36
2019-05-25T00:48:04.343Z,59.41
2019-05-25T00:50:31.830Z,59.41
2019-05-25T00:52:59.329Z,59.41
2019-05-25T00:55:26.786Z,59.40
2019-05-25T00:57:54.319Z,59.39
2019-05-25T01:00:21.758Z,59.41
2019-05-25T01:02:49.293Z,59.43
2019-05-25T01:05:16.883Z,59.40
2019-05-25T01:07:44.378Z,59.44
2019-05-25T01:10:12.235Z,59.40
2019-05-25T01:12:39.845Z,59.36
2019-05-25T01:15:07.320Z,59.39
2019-05-25T01:17:34.809Z,59.43
2019-05-25T01:20:02.470Z,59.45
2019-05-25T01:22:29.946Z,59.34
2019-05-25T01:24:57.400Z,59.38
2019-05-25T01:27:24.972Z,59.43
2019-05-25T01:29:52.457Z,59.24
2019-05-25T01:32:19.912Z,59.19
2019-05-25T01:34:47.396Z,59.28
2019-05-25T01:37:14.879Z,59.25
2019-05-25T01:39:42.412Z,59.31
2019-05-25T01:42:09.855Z,59.41
2019-05-25T01:44:37.331Z,59.52
2019-05-25T01:47:04.841Z,59.44
2019-05-25T01:49:32.420Z,59.40
2019-05-25T01:51:59.878Z,59.32
2019-05-25T01:54:27.379Z,59.43
2019-05-25T01:56:54.873Z,59.40
2019-05-25T01:59:22.468Z,59.39
2019-05-25T02:01:49.930Z,59.52
2019-05-25T02:04:17.389Z,59.44
2019-05-25T02:06:44.886Z,59.31
2019-05-25T02:09:12.331Z,59.35
2019-05-25T02:11:39.821Z,59.31
2019-05-25T02:14:07.306Z,59.37
2019-05-25T02:16:34.916Z,59.39
2019-05-25T02:19:02.398Z,59.43
2019-05-25T02:21:29.935Z,59.44
2019-05-25T02:23:57.438Z,59.48
2019-05-25T02:26:24.938Z,59.47
2019-05-25T02:28:52.444Z,59.43
2019-05-25T02:31:19.928Z,59.39
2019-05-25T02:33:47.616Z,59.44
2019-05-25T02:36:15.080Z,59.45
2019-05-25T02:38:42.615Z,59.48
2019-05-25T02:41:10.255Z,59.46
2019-05-25T02:43:37.812Z,59.43
2019-05-25T02:46:05.383Z,59.45
2019-05-25T02:48:33.008Z,59.42
2019-05-25T02:51:00.485Z,59.43
2019-05-25T02:53:28.040Z,59.46
2019-05-25T02:55:55.542Z,59.47
2019-05-25T02:58:23.013Z,59.44
2019-05-25T03:00:50.665Z,59.47
2019-05-25T03:03:18.139Z,59.47
2019-05-25T03:05:45.853Z,59.44
2019-05-25T03:08:13.418Z,59.44
2019-05-25T03:10:40.862Z,59.42
2019-05-25T03:13:08.390Z,59.47
2019-05-25T03:15:35.931Z,59.47
2019-05-25T03:18:03.747Z,59.49
2019-05-25T03:20:31.470Z,59.48
2019-05-25T03:22:58.983Z,59.46
2019-05-25T03:25:26.453Z,59.32
2019-05-25T03:27:53.976Z,59.29
2019-05-25T03:30:30.447Z,59.20
2019-05-25T03:32:58.154Z,59.19
2019-05-25T03:35:25.673Z,59.28
2019-05-25T03:37:53.154Z,59.33
2019-05-25T03:40:20.735Z,59.29
2019-05-25T03:42:48.178Z,59.35
2019-05-25T03:45:15.661Z,59.35
2019-05-25T03:47:43.211Z,59.21
2019-05-25T03:50:10.681Z,59.18
2019-05-25T03:52:38.127Z,59.18
2019-05-25T03:55:05.926Z,59.18
2019-05-25T03:57:33.453Z,59.24
2019-05-25T04:00:00.927Z,59.13
2019-05-25T04:02:28.543Z,59.20
2019-05-25T04:04:56.257Z,59.08
2019-05-25T04:07:23.713Z,59.03
2019-05-25T04:09:51.194Z,59.07
2019-05-25T04:12:18.716Z,59.16
2019-05-25T04:14:46.283Z,59.12
2019-05-25T04:17:13.771Z,59.22
2019-05-25T04:19:41.404Z,59.25
2019-05-25T04:22:08.877Z,59.15
2019-05-25T04:24:36.396Z,59.09
2019-05-25T04:27:03.962Z,58.93
2019-05-25T04:29:32.426Z,58.91
2019-05-25T04:32:00.512Z,58.90
2019-05-25T04:34:28.109Z,59.00
2019-05-25T04:36:55.764Z,58.93
2019-05-25T04:39:23.202Z,58.82
2019-05-25T04:41:50.626Z,59.04
2019-05-25T04:44:18.112Z,59.10
2019-05-25T04:46:45.705Z,59.02
2019-05-25T04:49:13.213Z,59.19
2019-05-25T04:51:40.675Z,59.25
2019-05-25T04:54:08.298Z,59.16
2019-05-25T04:56:39.540Z,59.25
2019-05-25T04:59:05.214Z,59.29
2019-05-25T05:01:32.663Z,59.24
2019-05-25T05:04:00.335Z,59.29
2019-05-25T05:06:27.870Z,59.23
2019-05-25T05:08:55.372Z,59.24
2019-05-25T05:11:23.034Z,59.18
2019-05-25T05:13:50.597Z,59.17
2019-05-25T05:16:18.078Z,59.16
2019-05-25T05:18:45.658Z,59.11
2019-05-25T05:21:13.134Z,59.02
2019-05-25T05:23:40.655Z,58.91
2019-05-25T05:26:08.158Z,58.94
2019-05-25T05:28:35.649Z,58.87
2019-05-25T05:31:03.416Z,58.85
2019-05-25T05:33:30.934Z,58.84
2019-05-25T05:35:58.791Z,58.86
2019-05-25T05:38:26.351Z,58.95
2019-05-25T05:40:53.796Z,58.81
2019-05-25T05:43:21.305Z,58.80
2019-05-25T05:45:48.933Z,58.80
2019-05-25T05:48:16.408Z,58.67
2019-05-25T05:50:44.115Z,58.55
2019-05-25T05:53:11.614Z,58.48
2019-05-25T05:55:39.068Z,58.50
2019-05-25T05:58:06.665Z,58.49
2019-05-25T06:00:34.203Z,58.58
2019-05-25T06:03:01.668Z,58.63
2019-05-25T06:05:29.155Z,58.53
2019-05-25T06:07:56.613Z,58.50
2019-05-25T06:10:24.197Z,58.48
2019-05-25T06:12:51.747Z,58.21
2019-05-25T06:15:19.215Z,58.36
2019-05-25T06:17:46.702Z,58.27
2019-05-25T06:20:14.652Z,58.16
2019-05-25T06:22:42.259Z,58.14
2019-05-25T06:25:09.912Z,58.22
2019-05-25T06:27:37.342Z,58.28
2019-05-25T06:30:04.950Z,58.20
2019-05-25T06:32:32.395Z,57.82
2019-05-25T06:34:59.909Z,57.79
2019-05-25T06:37:27.757Z,57.93
2019-05-25T06:39:55.201Z,57.73
2019-05-25T06:42:22.707Z,57.80
2019-05-25T06:44:50.140Z,57.80
2019-05-25T06:47:17.932Z,57.64
2019-05-25T06:49:45.458Z,57.66
2019-05-25T06:52:13.025Z,57.69
2019-05-25T06:54:40.506Z,57.47
2019-05-25T06:57:07.995Z,57.39
2019-05-25T06:59:35.639Z,57.29
2019-05-25T07:02:03.164Z,57.15
2019-05-25T07:04:30.684Z,57.00
2019-05-25T07:06:58.221Z,57.06
2019-05-25T07:09:25.700Z,56.88
2019-05-25T07:11:53.180Z,56.88
2019-05-25T07:14:20.662Z,56.88
2019-05-25T07:16:48.191Z,56.84
2019-05-25T07:19:15.677Z,56.63
2019-05-25T07:21:43.255Z,56.83
2019-05-25T07:24:10.788Z,56.72
2019-05-25T07:26:38.319Z,56.66
2019-05-25T07:29:05.840Z,56.51
2019-05-25T07:31:33.380Z,56.44
2019-05-25T07:34:00.900Z,56.53
2019-05-25T07:36:28.384Z,56.29
2019-05-25T07:38:55.885Z,56.39
2019-05-25T07:41:23.489Z,56.16
2019-05-25T07:43:50.911Z,56.35
2019-05-25T07:46:18.420Z,56.21
2019-05-25T07:48:45.911Z,56.04
2019-05-25T07:51:13.400Z,55.86
2019-05-25T07:53:40.983Z,55.82
2019-05-25T07:56:08.457Z,56.00
2019-05-25T07:58:35.963Z,55.83
2019-05-25T08:01:03.546Z,55.93
2019-05-25T08:03:31.055Z,55.94
2019-05-25T08:05:58.516Z,55.99
2019-05-25T08:08:25.994Z,55.88
2019-05-25T08:10:53.466Z,55.74
2019-05-25T08:13:21.081Z,55.82
2019-05-25T08:15:48.537Z,55.55
2019-05-25T08:18:16.021Z,55.69
2019-05-25T08:20:46.619Z,55.73
2019-05-25T08:23:12.883Z,55.62
2019-05-25T08:25:40.379Z,55.50
2019-05-25T08:28:07.921Z,55.46
2019-05-25T08:30:35.414Z,55.53
2019-05-25T08:33:02.997Z,55.27
2019-05-25T08:35:30.522Z,55.10
2019-05-25T08:37:58.159Z,55.17
2019-05-25T08:40:25.630Z,55.24
2019-05-25T08:42:53.149Z,55.29
2019-05-25T08:45:20.626Z,55.21
2019-05-25T08:47:48.166Z,55.33
2019-05-25T08:50:15.604Z,55.21
2019-05-25T08:52:43.074Z,55.30
2019-05-25T08:55:10.611Z,55.39
2019-05-25T08:57:38.081Z,55.47
2019-05-25T09:00:05.697Z,55.19
2019-05-25T09:02:33.381Z,54.96
2019-05-25T09:05:00.851Z,54.89
2019-05-25T09:07:28.308Z,54.98
2019-05-25T09:09:55.925Z,55.01
2019-05-25T09:12:23.596Z,55.03
2019-05-25T09:14:51.037Z,55.09
2019-05-25T09:17:18.560Z,54.93
2019-05-25T09:19:46.018Z,54.98
2019-05-25T09:22:13.519Z,54.80
2019-05-25T09:24:41.072Z,54.85
2019-05-25T09:27:08.577Z,54.71
2019-05-25T09:29:36.077Z,54.58
2019-05-25T09:32:06.882Z,54.74
2019-05-25T09:34:33.132Z,54.45
2019-05-25T09:37:00.623Z,54.45
2019-05-25T09:39:28.149Z,54.53
2019-05-25T09:41:55.640Z,54.61
2019-05-25T09:44:23.166Z,54.40
2019-05-25T09:46:50.772Z,54.40
2019-05-25T09:49:18.323Z,54.43
2019-05-25T09:51:48.476Z,54.38
2019-05-25T09:54:15.141Z,54.48
2019-05-25T09:56:42.628Z,54.29
2019-05-25T09:59:19.775Z,54.45
2019-05-25T10:01:39.589Z,54.54
2019-05-25T10:04:07.076Z,54.38
2019-05-25T10:06:34.573Z,54.51
2019-05-25T10:09:02.049Z,54.67
2019-05-25T10:11:29.564Z,54.58
2019-05-25T10:13:57.073Z,54.43
2019-05-25T10:16:24.691Z,54.44
2019-05-25T10:18:52.522Z,54.53
2019-05-25T10:21:19.993Z,54.45
2019-05-25T10:23:47.529Z,54.57
2019-05-25T10:26:15.001Z,54.47
2019-05-25T10:28:42.507Z,54.32
2019-05-25T10:31:10.152Z,54.33
2019-05-25T10:33:37.616Z,54.16
2019-05-25T10:36:05.119Z,54.27
2019-05-25T10:38:32.573Z,54.29
2019-05-25T10:41:00.079Z,54.14
2019-05-25T10:43:27.671Z,54.35
2019-05-25T10:45:55.173Z,54.32
2019-05-25T10:48:22.658Z,54.28
2019-05-25T10:50:50.477Z,54.30
2019-05-25T10:53:18.070Z,54.05
2019-05-25T10:55:45.546Z,54.13
2019-05-25T10:58:13.063Z,54.05
2019-05-25T11:00:40.587Z,53.91
2019-05-25T11:03:08.060Z,53.84
2019-05-25T11:05:35.621Z,53.86
2019-05-25T11:08:03.155Z,53.73
2019-05-25T11:10:30.630Z,53.79
2019-05-25T11:12:58.093Z,53.56
2019-05-25T11:15:25.608Z,53.41
2019-05-25T11:17:53.072Z,53.46
2019-05-25T11:20:20.547Z,53.58
2019-05-25T11:22:48.016Z,53.65
2019-05-25T11:25:15.513Z,53.70
2019-05-25T11:27:43.055Z,53.62
2019-05-25T11:30:10.636Z,53.40
2019-05-25T11:32:38.360Z,53.50
2019-05-25T11:35:06.337Z,53.12
2019-05-25T11:37:33.791Z,53.21
2019-05-25T11:40:01.422Z,53.31
2019-05-25T11:42:28.909Z,53.19
2019-05-25T11:44:56.376Z,53.02
2019-05-25T11:47:23.975Z,53.15
2019-05-25T11:49:51.412Z,53.09
2019-05-25T11:52:18.882Z,53.08
2019-05-25T11:54:46.386Z,53.08
2019-05-25T11:57:13.873Z,53.05
2019-05-25T11:59:41.346Z,53.07
2019-05-25T12:02:08.841Z,53.04
2019-05-25T12:04:36.340Z,53.02
2019-05-25T12:07:03.783Z,52.95
2019-05-25T12:09:31.356Z,52.94
2019-05-25T12:11:58.883Z,52.92
2019-05-25T12:14:26.323Z,52.77
2019-05-25T12:16:53.842Z,52.88
2019-05-25T12:19:21.366Z,52.91
2019-05-25T12:21:48.826Z,52.69
2019-05-25T12:24:16.318Z,52.83
2019-05-25T12:26:43.771Z,52.79
2019-05-25T12:29:11.311Z,52.71
2019-05-25T12:31:38.768Z,52.79
2019-05-25T12:34:06.365Z,52.81
2019-05-25T12:36:33.840Z,52.76
2019-05-25T12:39:01.308Z,52.74
2019-05-25T12:41:28.983Z,52.74
2019-05-25T12:43:56.478Z,52.71
2019-05-25T12:46:23.953Z,52.63
2019-05-25T12:48:51.435Z,52.71
2019-05-25T12:51:19.025Z,52.66
2019-05-25T12:53:46.480Z,52.67
2019-05-25T12:56:13.985Z,52.63
2019-05-25T12:58:41.466Z,52.34
2019-05-25T13:01:08.983Z,52.28
2019-05-25T13:03:36.479Z,52.47
2019-05-25T13:06:03.999Z,52.50
2019-05-25T13:08:32.029Z,52.47
2019-05-25T13:10:59.511Z,52.36
2019-05-25T13:13:27.043Z,52.36
2019-05-25T13:15:54.600Z,52.51
2019-05-25T13:18:22.110Z,52.41
2019-05-25T13:20:49.643Z,52.50
2019-05-25T13:23:17.264Z,52.52
2019-05-25T13:25:44.803Z,52.49
2019-05-25T13:28:12.288Z,52.61
2019-05-25T13:30:39.938Z,52.38
2019-05-25T13:33:07.437Z,52.43
2019-05-25T13:35:34.925Z,52.58
2019-05-25T13:38:02.582Z,52.47
2019-05-25T13:40:30.067Z,52.53
2019-05-25T13:42:57.716Z,52.53
2019-05-25T13:45:25.223Z,52.41
2019-05-25T13:47:52.718Z,52.39
2019-05-25T13:50:20.389Z,52.60
2019-05-25T13:52:47.874Z,52.57
2019-05-25T13:55:15.359Z,52.55
2019-05-25T13:57:42.913Z,52.60
2019-05-25T14:00:10.663Z,52.67
2019-05-25T14:02:38.210Z,52.54
2019-05-25T14:05:05.775Z,52.55
2019-05-25T14:07:33.251Z,52.49
2019-05-25T14:10:00.768Z,52.51
2019-05-25T14:12:28.262Z,52.51
2019-05-25T14:14:55.779Z,52.39
2019-05-25T14:17:23.318Z,52.59
2019-05-25T14:19:50.983Z,52.32
2019-05-25T14:22:18.468Z,52.52
2019-05-25T14:24:46.067Z,52.55
2019-05-25T14:27:13.636Z,52.43
2019-05-25T14:29:41.187Z,52.61
2019-05-25T14:32:08.680Z,52.58
2019-05-25T14:34:37.029Z,52.61
2019-05-25T14:37:04.668Z,52.72
2019-05-25T14:39:32.153Z,52.69
2019-05-25T14:41:59.845Z,52.72
2019-05-25T14:44:27.348Z,52.80
2019-05-25T14:46:54.842Z,52.80
2019-05-25T14:49:22.484Z,52.66
2019-05-25T14:51:50.155Z,52.74
2019-05-25T14:54:17.631Z,52.70
2019-05-25T14:56:45.187Z,52.71
2019-05-25T14:59:12.808Z,52.73
2019-05-25T15:01:40.335Z,52.78
2019-05-25T15:04:07.839Z,52.89
2019-05-25T15:06:35.412Z,52.90
2019-05-25T15:09:03.704Z,52.81
2019-05-25T15:11:31.203Z,52.92
2019-05-25T15:13:58.664Z,52.97
2019-05-25T15:16:26.155Z,52.80
2019-05-25T15:18:53.683Z,52.49
2019-05-25T15:21:21.428Z,52.31
2019-05-25T15:23:48.943Z,52.14
2019-05-25T15:26:16.482Z,52.22
2019-05-25T15:28:43.971Z,52.01
2019-05-25T15:31:11.490Z,52.03
2019-05-25T15:33:38.970Z,51.98
2019-05-25T15:36:06.475Z,52.02
2019-05-25T15:38:34.101Z,51.89
2019-05-25T15:41:01.590Z,51.87
2019-05-25T15:43:29.102Z,51.87
2019-05-25T15:45:56.619Z,51.78
2019-05-25T15:48:26.211Z,51.60
2019-05-25T15:50:53.504Z,51.42
2019-05-25T15:53:20.986Z,51.38
2019-05-25T15:55:48.520Z,51.40
2019-05-25T15:58:15.971Z,51.37
2019-05-25T16:00:48.016Z,51.39
2019-05-25T16:03:16.449Z,51.50
2019-05-25T16:05:47.377Z,51.47
2019-05-25T16:08:13.441Z,51.44
2019-05-25T16:10:40.964Z,51.52
2019-05-25T16:13:08.503Z,51.53
2019-05-25T16:15:36.044Z,51.54
2019-05-25T16:18:03.546Z,51.49
2019-05-25T16:20:31.024Z,51.30
2019-05-25T16:22:58.533Z,51.30
2019-05-25T16:25:26.127Z,51.14
2019-05-25T16:27:53.701Z,51.02
2019-05-25T16:30:21.182Z,50.98
2019-05-25T16:35:18.137Z,51.36
2019-05-25T16:37:07.704Z,51.11
2019-05-25T16:37:46.022Z,51.26
2019-05-25T16:40:13.989Z,51.16
2019-05-25T16:42:41.503Z,51.03
2019-05-25T16:45:09.306Z,51.01
2019-05-25T16:47:36.779Z,50.97
2019-05-25T16:50:04.774Z,50.88
2019-05-25T16:52:32.257Z,50.83
2019-05-25T16:54:59.798Z,50.88
2019-05-25T16:57:27.410Z,51.10
2019-05-25T16:59:55.033Z,51.08
2019-05-25T17:02:22.530Z,51.18
2019-05-25T17:04:50.545Z,51.44
2019-05-25T17:07:18.036Z,51.62
2019-05-25T17:09:45.853Z,51.73
2019-05-25T17:12:13.362Z,51.91
2019-05-25T17:14:41.206Z,52.06
2019-05-25T17:17:09.046Z,52.15
2019-05-25T17:19:36.864Z,52.22
2019-05-25T17:22:04.389Z,52.21
2019-05-25T17:24:31.893Z,52.31
2019-05-25T17:26:59.446Z,52.38
2019-05-25T17:29:26.949Z,52.50
2019-05-25T17:31:54.868Z,52.63
2019-05-25T17:34:22.372Z,52.70
2019-05-25T17:36:49.874Z,52.69
2019-05-25T17:39:17.422Z,52.75
2019-05-25T17:41:44.989Z,52.83
2019-05-25T17:44:12.501Z,52.94
2019-05-25T17:46:40.025Z,52.99
2019-05-25T17:49:07.562Z,53.04
2019-05-25T17:51:35.055Z,53.07
2019-05-25T17:54:02.591Z,53.14
2019-05-25T17:56:30.130Z,53.23
2019-05-25T17:58:57.616Z,53.26
2019-05-25T18:01:25.110Z,53.33
2019-05-25T18:04:05.765Z,53.40
2019-05-25T18:06:22.286Z,53.46
2019-05-25T18:08:50.016Z,53.51
2019-05-25T18:11:17.672Z,53.60
2019-05-25T18:13:45.192Z,53.68
2019-05-25T18:16:12.715Z,53.80
2019-05-25T18:18:40.209Z,53.71
2019-05-25T18:21:07.754Z,53.71
2019-05-25T18:23:35.257Z,53.77
2019-05-25T18:26:02.813Z,53.96
2019-05-25T18:28:30.302Z,54.03
2019-05-25T18:30:57.805Z,53.91
2019-05-25T18:33:25.316Z,54.17
2019-05-25T18:35:52.834Z,54.21
2019-05-25T18:38:20.420Z,54.26
2019-05-25T18:40:47.975Z,54.30
2019-05-25T18:43:19.257Z,54.44
2019-05-25T18:45:46.770Z,54.50
2019-05-25T18:48:14.279Z,54.52
2019-05-25T18:50:42.170Z,54.58
2019-05-25T18:53:09.731Z,54.57
2019-05-25T18:55:37.272Z,54.55
2019-05-25T18:58:04.895Z,54.66
2019-05-25T19:00:32.444Z,54.70
2019-05-25T19:02:59.984Z,54.74
2019-05-25T19:05:27.506Z,54.76
2019-05-25T19:07:54.990Z,54.85
2019-05-25T19:10:22.507Z,54.90
2019-05-25T19:12:49.993Z,54.96
2019-05-25T19:15:17.552Z,55.03
2019-05-25T19:17:45.083Z,55.05
2019-05-25T19:20:12.661Z,55.09
2019-05-25T19:22:40.380Z,55.12
2019-05-25T19:25:07.972Z,55.16
2019-05-25T19:27:35.634Z,55.21
2019-05-25T19:30:08.518Z,55.25
2019-05-25T19:32:36.261Z,55.31
2019-05-25T19:35:03.954Z,55.33
2019-05-25T19:37:31.604Z,55.36
2019-05-25T19:39:59.185Z,55.42
2019-05-25T19:42:26.658Z,55.44
2019-05-25T19:44:54.177Z,55.48
2019-05-25T19:47:21.812Z,55.54
2019-05-25T19:49:49.339Z,55.55
2019-05-25T19:52:16.849Z,55.58
2019-05-25T19:54:44.390Z,55.60
2019-05-25T19:57:11.890Z,55.64
2019-05-25T19:59:39.705Z,55.66
2019-05-25T20:02:07.222Z,55.68
2019-05-25T20:04:34.748Z,55.70
2019-05-25T20:07:02.257Z,55.73
2019-05-25T20:09:29.779Z,55.76
2019-05-25T20:11:57.459Z,55.84
2019-05-25T20:14:24.986Z,55.84
2019-05-25T20:16:52.566Z,55.84
2019-05-25T20:19:20.052Z,55.86
2019-05-25T20:21:47.840Z,55.90
2019-05-25T20:24:15.423Z,55.96
2019-05-25T20:26:42.955Z,55.99
2019-05-25T20:29:10.454Z,56.00
2019-05-25T20:31:38.110Z,56.01
2019-05-25T20:34:05.625Z,56.07
2019-05-25T20:36:33.236Z,56.08
2019-05-25T20:39:00.780Z,56.08
2019-05-25T20:41:28.426Z,56.15
2019-05-25T20:43:55.955Z,56.19
2019-05-25T20:46:23.459Z,56.20
2019-05-25T20:48:50.998Z,56.24
2019-05-25T20:51:18.614Z,56.26
2019-05-25T20:53:46.799Z,56.28
2019-05-25T20:56:14.665Z,56.34
2019-05-25T20:58:47.745Z,56.42
2019-05-25T21:01:15.239Z,56.40
2019-05-25T21:03:42.774Z,56.46
2019-05-25T21:06:10.246Z,56.42
2019-05-25T21:08:37.769Z,56.53
2019-05-25T21:11:05.382Z,56.50
2019-05-25T21:13:32.853Z,56.54
2019-05-25T21:16:00.372Z,56.60
2019-05-25T21:18:27.972Z,56.68
2019-05-25T21:20:55.481Z,56.70
2019-05-25T21:23:22.993Z,56.74
2019-05-25T21:25:50.488Z,56.75
2019-05-25T21:28:17.987Z,56.75
2019-05-25T21:30:47.932Z,56.80
2019-05-25T21:33:15.437Z,56.82
2019-05-25T21:35:42.976Z,56.87
2019-05-25T21:38:10.528Z,56.85
2019-05-25T21:40:37.970Z,56.87
2019-05-25T21:43:05.572Z,56.94
2019-05-25T21:45:33.072Z,56.91
2019-05-25T21:48:00.538Z,56.92
2019-05-25T21:50:28.040Z,56.95
2019-05-25T21:52:55.548Z,56.95
2019-05-25T21:55:23.051Z,56.99
2019-05-25T21:57:50.514Z,56.98
2019-05-25T22:00:21.057Z,57.00
2019-05-25T22:02:48.812Z,57.05
2019-05-25T22:05:16.283Z,57.10
2019-05-25T22:07:43.843Z,57.11
2019-05-25T22:10:11.401Z,57.10
2019-05-25T22:12:40.468Z,57.14
2019-05-25T22:15:09.792Z,57.19
2019-05-25T22:17:37.773Z,57.21
2019-05-25T22:20:05.294Z,57.25
2019-05-25T22:22:32.743Z,57.30
2019-05-25T22:25:00.254Z,57.36
2019-05-25T22:27:27.830Z,57.38
2019-05-25T22:29:55.459Z,57.38
2019-05-25T22:32:22.949Z,57.43
2019-05-25T22:34:50.534Z,57.45
2019-05-25T22:37:18.048Z,57.52
2019-05-25T22:39:45.521Z,57.51
2019-05-25T22:42:12.994Z,57.58
2019-05-25T22:44:40.584Z,57.54
2019-05-25T22:47:08.131Z,57.57
2019-05-25T22:49:35.663Z,57.63
2019-05-25T22:52:03.357Z,57.66
2019-05-25T22:54:30.847Z,57.68
2019-05-25T22:56:58.450Z,57.70
2019-05-25T22:59:26.056Z,57.72
2019-05-25T23:01:53.547Z,57.74
2019-05-25T23:04:21.019Z,57.79
2019-05-25T23:06:57.974Z,57.79
2019-05-25T23:09:18.050Z,57.83
2019-05-25T23:11:45.512Z,57.83
2019-05-25T23:14:13.005Z,57.90
2019-05-25T23:16:40.584Z,57.88
2019-05-25T23:19:08.183Z,57.89
2019-05-25T23:21:35.647Z,57.90
2019-05-25T23:24:03.105Z,57.93
2019-05-25T23:26:30.611Z,57.95
2019-05-25T23:28:58.145Z,57.99
2019-05-25T23:31:25.647Z,58.03
2019-05-25T23:33:53.106Z,58.03
2019-05-25T23:36:20.718Z,58.07
2019-05-25T23:38:48.175Z,58.08
2019-05-25T23:41:15.680Z,58.13
2019-05-25T23:43:43.169Z,58.07
2019-05-25T23:46:10.638Z,58.12
2019-05-25T23:48:38.186Z,58.17
2019-05-25T23:51:05.769Z,58.10
2019-05-25T23:53:33.262Z,58.14
2019-05-25T23:56:00.723Z,58.16
2019-05-25T23:58:28.318Z,58.21
